createdAt,value
2023-10-08T00:00:51.044Z,97291.72
2023-10-08T00:03:19.134Z,97299.22
2023-10-08T00:05:47.413Z,97282.38
2023-10-08T00:08:17.955Z,97291.72
2023-10-08T00:10:46.538Z,97296.28
2023-10-08T00:13:16.512Z,97294.00
2023-10-08T00:15:54.602Z,97280.22
2023-10-08T00:18:25.052Z,97292.22
2023-10-08T00:20:58.084Z,97286.81
2023-10-08T00:23:27.541Z,97282.66
2023-10-08T00:25:55.865Z,97290.94
2023-10-08T00:28:24.005Z,97261.44
2023-10-08T00:30:51.070Z,97264.59
2023-10-08T00:33:18.306Z,97265.63
2023-10-08T00:35:45.211Z,97268.53
2023-10-08T00:38:21.681Z,97261.41
2023-10-08T00:40:52.245Z,97262.22
2023-10-08T00:43:36.066Z,97262.19
2023-10-08T00:46:22.358Z,97262.44
2023-10-08T00:48:50.328Z,97255.34
2023-10-08T00:51:27.420Z,97255.28
2023-10-08T00:54:18.445Z,97240.63
2023-10-08T00:56:47.946Z,97241.88
2023-10-08T00:59:17.769Z,97235.13
2023-10-08T01:01:52.837Z,97235.56
2023-10-08T01:04:27.020Z,97223.63
2023-10-08T01:07:00.290Z,97222.00
2023-10-08T01:09:36.796Z,97227.84
2023-10-08T01:12:21.027Z,97223.19
2023-10-08T01:14:49.730Z,97215.25
2023-10-08T01:17:17.494Z,97205.13
2023-10-08T01:19:47.091Z,97202.03
2023-10-08T01:22:18.082Z,97190.00
2023-10-08T01:24:45.355Z,97183.34
2023-10-08T01:27:13.225Z,97181.28
2023-10-08T01:29:40.876Z,97179.56
2023-10-08T01:32:12.685Z,97187.84
2023-10-08T01:34:40.374Z,97193.19
2023-10-08T01:37:10.168Z,97185.47
2023-10-08T01:39:43.822Z,97178.22
2023-10-08T01:42:21.506Z,97176.19
2023-10-08T01:44:50.085Z,97175.41
2023-10-08T01:47:17.770Z,97158.69
2023-10-08T01:49:45.848Z,97158.69
2023-10-08T01:52:22.278Z,97161.91
2023-10-08T01:54:49.992Z,97175.97
2023-10-08T01:57:18.409Z,97168.66
2023-10-08T01:59:45.634Z,97171.88
2023-10-08T02:02:16.646Z,97165.44
2023-10-08T02:04:45.148Z,97169.97
2023-10-08T02:07:13.977Z,97165.34
2023-10-08T02:09:42.120Z,97163.13
2023-10-08T02:12:09.471Z,97169.38
2023-10-08T02:14:36.906Z,97165.53
2023-10-08T02:17:07.641Z,97153.88
2023-10-08T02:19:36.094Z,97163.34
2023-10-08T02:22:03.925Z,97155.72
2023-10-08T02:24:31.748Z,97131.84
2023-10-08T02:26:59.153Z,97136.50
2023-10-08T02:29:30.985Z,97154.00
2023-10-08T02:31:58.646Z,97131.94
2023-10-08T02:34:25.622Z,97141.91
2023-10-08T02:36:53.521Z,97127.53
2023-10-08T02:39:27.134Z,97113.44
2023-10-08T02:41:58.022Z,97130.16
2023-10-08T02:44:24.952Z,97119.56
2023-10-08T02:46:52.901Z,97121.50
2023-10-08T02:49:21.480Z,97098.56
2023-10-08T02:51:51.744Z,97117.66
2023-10-08T02:54:19.496Z,97102.97
2023-10-08T02:56:52.933Z,97077.22
2023-10-08T02:59:23.701Z,97103.78
2023-10-08T03:01:51.225Z,97097.63
2023-10-08T03:04:20.988Z,97088.50
2023-10-08T03:06:54.563Z,97093.31
2023-10-08T03:09:24.475Z,97094.91
2023-10-08T03:11:52.282Z,97083.84
2023-10-08T03:14:23.092Z,97086.50
2023-10-08T03:16:54.294Z,97061.72
2023-10-08T03:19:23.597Z,97072.19
2023-10-08T03:21:57.358Z,97056.09
2023-10-08T03:24:36.580Z,97071.19
2023-10-08T03:27:29.356Z,97071.78
2023-10-08T03:29:56.296Z,97065.56
2023-10-08T03:32:27.972Z,97075.50
2023-10-08T03:34:55.796Z,97079.84
2023-10-08T03:37:30.828Z,97081.47
2023-10-08T03:40:16.260Z,97073.91
2023-10-08T03:42:43.386Z,97069.00
2023-10-08T03:45:13.684Z,97070.88
2023-10-08T03:47:42.487Z,97072.19
2023-10-08T03:50:13.057Z,97042.44
2023-10-08T03:52:39.779Z,97072.00
2023-10-08T03:55:28.612Z,97069.28
2023-10-08T03:57:58.600Z,97051.78
2023-10-08T04:00:33.384Z,97055.00
2023-10-08T04:03:02.490Z,97066.88
2023-10-08T04:05:34.097Z,97052.38
2023-10-08T04:08:01.123Z,97047.06
2023-10-08T04:10:44.636Z,97048.66
2023-10-08T04:13:11.486Z,97051.91
2023-10-08T04:15:44.688Z,97050.69
2023-10-08T04:18:12.862Z,97057.22
2023-10-08T04:20:40.426Z,97056.31
2023-10-08T04:23:19.644Z,97056.22
2023-10-08T04:25:48.146Z,97051.25
2023-10-08T04:28:18.571Z,97061.50
2023-10-08T04:30:48.853Z,97046.44
2023-10-08T04:33:16.280Z,97041.41
2023-10-08T04:35:56.833Z,97043.53
2023-10-08T04:38:27.677Z,97046.72
2023-10-08T04:40:54.636Z,97043.81
2023-10-08T04:43:32.405Z,97047.63
2023-10-08T04:46:00.247Z,97047.75
2023-10-08T04:48:30.879Z,97042.63
2023-10-08T04:51:01.256Z,97059.13
2023-10-08T04:53:38.447Z,97044.66
2023-10-08T04:56:07.763Z,97038.41
2023-10-08T04:58:37.650Z,97033.69
2023-10-08T05:01:29.545Z,97035.00
2023-10-08T05:03:57.627Z,97030.25
2023-10-08T05:06:34.803Z,97030.66
2023-10-08T05:09:11.870Z,97029.75
2023-10-08T05:11:52.261Z,97023.81
2023-10-08T05:14:49.627Z,97013.63
2023-10-08T05:17:19.712Z,97000.97
2023-10-08T05:19:49.672Z,97008.59
2023-10-08T05:22:30.531Z,97017.94
2023-10-08T05:25:17.120Z,97018.03
2023-10-08T05:27:48.487Z,97018.53
2023-10-08T05:30:39.254Z,97019.03
2023-10-08T05:33:10.044Z,97011.34
2023-10-08T05:35:44.359Z,97008.97
2023-10-08T05:38:45.335Z,97001.28
2023-10-08T05:41:29.429Z,96996.66
2023-10-08T05:44:15.577Z,97002.41
2023-10-08T05:47:07.399Z,96990.41
2023-10-08T05:49:34.828Z,96995.22
2023-10-08T05:52:04.677Z,96999.06
2023-10-08T05:54:33.029Z,97005.69
2023-10-08T05:57:15.889Z,96990.19
2023-10-08T06:00:14.283Z,96995.38
2023-10-08T06:02:45.570Z,97000.06
2023-10-08T06:05:24.257Z,96991.91
2023-10-08T06:07:55.867Z,97000.28
2023-10-08T06:10:32.333Z,97010.25
2023-10-08T06:13:19.582Z,96988.94
2023-10-08T06:15:57.362Z,97000.03
2023-10-08T06:18:27.869Z,97007.78
2023-10-08T06:21:09.381Z,97004.25
2023-10-08T06:23:43.615Z,97008.47
2023-10-08T06:26:10.670Z,97002.84
2023-10-08T06:28:39.440Z,97015.50
2023-10-08T06:31:17.934Z,96997.25
2023-10-08T06:33:45.979Z,96984.09
2023-10-08T06:36:13.581Z,96985.69
2023-10-08T06:38:42.660Z,96978.16
2023-10-08T06:41:20.368Z,96989.88
2023-10-08T06:44:22.816Z,96984.63
2023-10-08T06:46:49.897Z,96996.03
2023-10-08T06:49:19.885Z,96994.63
2023-10-08T06:51:46.736Z,97000.59
2023-10-08T06:54:17.916Z,96997.72
2023-10-08T06:56:53.859Z,96987.00
2023-10-08T06:59:24.952Z,96990.59
2023-10-08T07:01:52.883Z,96990.13
2023-10-08T07:04:20.771Z,96973.16
2023-10-08T07:06:47.886Z,96993.38
2023-10-08T07:09:23.584Z,97006.38
2023-10-08T07:11:56.139Z,96984.41
2023-10-08T07:14:28.035Z,97006.88
2023-10-08T07:17:01.540Z,96997.56
2023-10-08T07:19:39.800Z,96997.44
2023-10-08T07:22:29.782Z,97002.56
2023-10-08T07:24:58.610Z,97005.75
2023-10-08T07:27:33.597Z,97016.03
2023-10-08T07:30:04.831Z,97003.38
2023-10-08T07:32:31.828Z,96990.88
2023-10-08T07:35:03.699Z,97001.13
2023-10-08T07:37:31.403Z,96997.28
2023-10-08T07:39:59.578Z,97005.13
2023-10-08T07:42:27.596Z,97001.13
2023-10-08T07:44:56.305Z,96992.97
2023-10-08T07:47:23.148Z,96993.31
2023-10-08T07:49:52.106Z,96987.97
2023-10-08T07:52:19.190Z,96976.75
2023-10-08T07:54:45.850Z,96994.22
2023-10-08T07:57:20.510Z,96999.69
2023-10-08T07:59:48.003Z,96981.09
2023-10-08T08:02:18.607Z,96988.31
2023-10-08T08:04:46.893Z,96992.50
2023-10-08T08:07:17.421Z,96963.50
2023-10-08T08:09:52.628Z,96975.84
2023-10-08T08:12:22.780Z,96982.59
2023-10-08T08:14:50.149Z,96978.56
2023-10-08T08:17:19.453Z,96977.91
2023-10-08T08:19:48.450Z,96975.19
2023-10-08T08:22:32.704Z,96970.06
2023-10-08T08:25:16.984Z,96968.47
2023-10-08T08:27:50.635Z,96967.50
2023-10-08T08:30:17.715Z,96969.25
2023-10-08T08:32:53.438Z,96954.97
2023-10-08T08:35:22.134Z,96948.91
2023-10-08T08:37:51.118Z,96942.16
2023-10-08T08:40:20.971Z,96938.78
2023-10-08T08:42:53.706Z,96929.13
2023-10-08T08:45:23.237Z,96950.44
2023-10-08T08:47:50.666Z,96951.03
2023-10-08T08:50:19.142Z,96952.09
2023-10-08T08:52:47.285Z,96953.00
2023-10-08T08:55:22.103Z,96961.16
2023-10-08T08:57:52.278Z,96954.84
2023-10-08T09:00:20.893Z,96955.13
2023-10-08T09:02:50.631Z,96958.63
2023-10-08T09:05:28.311Z,96947.72
2023-10-08T09:08:04.882Z,96951.69
2023-10-08T09:10:38.070Z,96960.81
2023-10-08T09:13:08.766Z,96960.63
2023-10-08T09:15:35.958Z,96952.34
2023-10-08T09:18:05.291Z,96934.47
2023-10-08T09:20:35.946Z,96930.22
2023-10-08T09:23:13.789Z,96947.25
2023-10-08T09:25:45.865Z,96949.88
2023-10-08T09:28:16.466Z,96952.41
2023-10-08T09:30:46.533Z,96948.88
2023-10-08T09:33:14.957Z,96954.97
2023-10-08T09:35:44.625Z,96959.78
2023-10-08T09:38:12.872Z,96968.69
2023-10-08T09:40:43.410Z,96949.00
2023-10-08T09:43:13.439Z,96962.41
2023-10-08T09:45:43.658Z,96969.16
2023-10-08T09:48:13.672Z,96973.84
2023-10-08T09:50:42.641Z,96974.75
2023-10-08T09:53:21.586Z,96971.22
2023-10-08T09:55:57.158Z,96974.91
2023-10-08T09:58:25.826Z,96970.88
2023-10-08T10:00:57.685Z,96970.75
2023-10-08T10:03:27.629Z,96955.63
2023-10-08T10:05:59.782Z,96961.41
2023-10-08T10:08:28.412Z,96955.34
2023-10-08T10:11:02.106Z,96952.50
2023-10-08T10:13:30.342Z,96959.78
2023-10-08T10:16:00.102Z,96951.31
2023-10-08T10:18:32.710Z,96959.81
2023-10-08T10:21:20.470Z,96938.91
2023-10-08T10:23:55.107Z,96953.03
2023-10-08T10:26:41.404Z,96949.16
2023-10-08T10:29:17.564Z,96945.16
2023-10-08T10:31:54.424Z,96943.44
2023-10-08T10:34:23.039Z,96941.03
2023-10-08T10:36:57.930Z,96946.44
2023-10-08T10:39:28.544Z,96945.50
2023-10-08T10:42:02.912Z,96953.69
2023-10-08T10:44:31.107Z,96932.22
2023-10-08T10:47:17.498Z,96942.94
2023-10-08T10:49:54.236Z,96939.88
2023-10-08T10:52:41.407Z,96943.06
2023-10-08T10:55:18.381Z,96932.50
2023-10-08T10:57:56.221Z,96935.66
2023-10-08T11:00:50.529Z,96927.81
2023-10-08T11:03:18.082Z,96927.34
2023-10-08T11:05:49.759Z,96921.88
2023-10-08T11:08:19.630Z,96928.47
2023-10-08T11:10:59.712Z,96921.72
2023-10-08T11:13:30.144Z,96947.94
2023-10-08T11:16:00.807Z,96949.41
2023-10-08T11:18:31.381Z,96945.38
2023-10-08T11:21:17.778Z,96953.00
2023-10-08T11:23:54.275Z,96953.03
2023-10-08T11:26:33.679Z,96951.59
2023-10-08T11:29:05.126Z,96952.88
2023-10-08T11:31:35.212Z,96950.78
2023-10-08T11:34:11.279Z,96943.22
2023-10-08T11:37:04.749Z,96951.00
2023-10-08T11:39:46.664Z,96927.03
2023-10-08T11:42:31.913Z,96925.81
2023-10-08T11:45:19.005Z,96922.81
2023-10-08T11:47:46.893Z,96935.94
2023-10-08T11:50:18.526Z,96935.56
2023-10-08T11:52:45.908Z,96927.47
2023-10-08T11:55:20.086Z,96926.13
2023-10-08T11:57:51.662Z,96937.00
2023-10-08T12:02:51.274Z,96924.59
2023-10-08T12:05:21.534Z,96942.50
2023-10-08T12:07:49.441Z,96957.47
2023-10-08T12:10:23.935Z,96953.00
2023-10-08T12:12:55.571Z,96961.78
2023-10-08T12:15:35.394Z,96947.66
2023-10-08T12:18:25.910Z,96951.38
2023-10-08T12:20:55.408Z,96953.47
2023-10-08T12:23:30.301Z,96938.06
2023-10-08T12:25:57.519Z,96963.25
2023-10-08T12:28:25.279Z,96953.94
2023-10-08T12:30:57.487Z,96963.94
2023-10-08T12:33:27.691Z,96981.69
2023-10-08T12:35:54.783Z,96989.28
2023-10-08T12:38:24.501Z,96992.91
2023-10-08T12:40:54.301Z,97014.53
2023-10-08T12:43:21.427Z,97011.25
2023-10-08T12:45:55.716Z,97019.44
2023-10-08T12:48:27.675Z,97023.69
2023-10-08T12:50:59.088Z,97028.41
2023-10-08T12:53:35.259Z,97035.34
2023-10-08T12:56:23.230Z,97025.88
2023-10-08T12:58:50.037Z,97032.66
2023-10-08T13:01:19.654Z,97019.91
2023-10-08T13:03:50.409Z,97041.28
2023-10-08T13:06:29.595Z,97052.38
2023-10-08T13:08:57.400Z,97039.84
2023-10-08T13:11:26.148Z,97052.19
2023-10-08T13:13:54.660Z,97070.34
2023-10-08T13:16:24.550Z,97063.47
2023-10-08T13:18:53.483Z,97079.94
2023-10-08T13:21:26.357Z,97062.44
2023-10-08T13:23:53.931Z,97068.53
2023-10-08T13:26:24.001Z,97076.13
2023-10-08T13:28:50.826Z,97086.84
2023-10-08T13:31:18.934Z,97090.34
2023-10-08T13:33:50.112Z,97081.47
2023-10-08T13:36:19.743Z,97077.41
2023-10-08T13:38:47.704Z,97098.22
2023-10-08T13:41:18.789Z,97099.44
2023-10-08T13:43:47.179Z,97080.44
2023-10-08T13:46:19.042Z,97104.28
2023-10-08T13:48:50.034Z,97103.91
2023-10-08T13:51:22.006Z,97111.00
2023-10-08T13:54:04.442Z,97109.84
2023-10-08T13:56:32.550Z,97119.34
2023-10-08T13:59:13.635Z,97126.03
2023-10-08T14:01:47.261Z,97125.66
2023-10-08T14:04:19.454Z,97123.16
2023-10-08T14:06:54.353Z,97152.06
2023-10-08T14:09:23.621Z,97151.56
2023-10-08T14:11:54.397Z,97161.75
2023-10-08T14:14:25.856Z,97171.63
2023-10-08T14:17:00.875Z,97157.31
2023-10-08T14:19:40.860Z,97181.50
2023-10-08T14:22:10.028Z,97182.50
2023-10-08T14:24:39.318Z,97178.03
2023-10-08T14:27:17.773Z,97188.50
2023-10-08T14:29:51.594Z,97197.16
2023-10-08T14:32:18.510Z,97194.53
2023-10-08T14:34:48.034Z,97207.69
2023-10-08T14:37:33.546Z,97202.38
2023-10-08T14:40:18.723Z,97218.38
2023-10-08T14:42:59.780Z,97229.31
2023-10-08T14:45:28.565Z,97212.81
2023-10-08T14:47:56.608Z,97214.53
2023-10-08T14:50:28.990Z,97241.38
2023-10-08T14:52:56.248Z,97234.34
2023-10-08T14:55:24.303Z,97254.47
2023-10-08T14:57:56.899Z,97259.59
2023-10-08T15:00:27.608Z,97252.66
2023-10-08T15:02:55.781Z,97243.75
2023-10-08T15:05:23.806Z,97247.44
2023-10-08T15:07:52.514Z,97257.88
2023-10-08T15:10:19.876Z,97256.31
2023-10-08T15:12:46.692Z,97255.00
2023-10-08T15:15:16.294Z,97267.78
2023-10-08T15:17:44.842Z,97268.38
2023-10-08T15:20:18.115Z,97281.72
2023-10-08T15:22:46.344Z,97292.38
2023-10-08T15:25:15.176Z,97283.19
2023-10-08T15:27:42.923Z,97286.50
2023-10-08T15:30:14.432Z,97291.53
2023-10-08T15:32:41.482Z,97289.22
2023-10-08T15:35:15.654Z,97294.53
2023-10-08T15:37:43.445Z,97288.50
2023-10-08T15:40:19.018Z,97303.56
2023-10-08T15:42:54.885Z,97320.72
2023-10-08T15:45:23.417Z,97332.00
2023-10-08T15:47:51.642Z,97324.97
2023-10-08T15:50:25.198Z,97347.28
2023-10-08T15:52:52.010Z,97360.09
2023-10-08T15:55:20.413Z,97359.34
2023-10-08T15:57:47.123Z,97359.84
2023-10-08T16:00:15.889Z,97359.91
2023-10-08T16:02:44.336Z,97388.06
2023-10-08T16:05:11.310Z,97378.16
2023-10-08T16:07:38.108Z,97391.72
2023-10-08T16:10:08.441Z,97389.88
2023-10-08T16:12:37.464Z,97405.09
2023-10-08T16:15:06.155Z,97400.28
2023-10-08T16:17:33.067Z,97402.50
2023-10-08T16:19:59.800Z,97403.00
2023-10-08T16:22:26.452Z,97409.00
2023-10-08T16:24:53.425Z,97423.69
2023-10-08T16:27:20.450Z,97426.41
2023-10-08T16:29:47.441Z,97430.78
2023-10-08T16:32:14.087Z,97443.56
2023-10-08T16:34:40.902Z,97441.41
2023-10-08T16:37:07.583Z,97446.34
2023-10-08T16:39:36.636Z,97452.59
2023-10-08T16:42:05.520Z,97469.88
2023-10-08T16:44:32.503Z,97469.38
2023-10-08T16:46:59.145Z,97476.16
2023-10-08T16:49:30.107Z,97475.63
2023-10-08T16:51:57.116Z,97462.69
2023-10-08T16:54:24.029Z,97487.84
2023-10-08T16:56:51.005Z,97503.53
2023-10-08T16:59:20.910Z,97493.06
2023-10-08T17:01:47.529Z,97504.69
2023-10-08T17:04:17.289Z,97508.47
2023-10-08T17:06:44.070Z,97513.38
2023-10-08T17:09:17.827Z,97503.94
2023-10-08T17:11:46.659Z,97499.63
2023-10-08T17:14:16.965Z,97511.78
2023-10-08T17:16:43.684Z,97516.13
2023-10-08T17:19:10.831Z,97511.25
2023-10-08T17:21:37.926Z,97516.13
2023-10-08T17:24:08.635Z,97532.38
2023-10-08T17:26:37.591Z,97537.22
2023-10-08T17:29:07.912Z,97539.13
2023-10-08T17:31:40.229Z,97532.94
2023-10-08T17:34:07.794Z,97537.78
2023-10-08T17:36:38.415Z,97545.63
2023-10-08T17:39:10.641Z,97545.63
2023-10-08T17:41:37.925Z,97566.16
2023-10-08T17:44:07.218Z,97556.16
2023-10-08T17:46:38.809Z,97564.81
2023-10-08T17:49:09.623Z,97569.13
2023-10-08T17:51:36.675Z,97572.09
2023-10-08T17:54:05.920Z,97556.69
2023-10-08T17:56:33.252Z,97568.59
2023-10-08T17:59:00.905Z,97579.94
2023-10-08T18:01:27.768Z,97594.25
2023-10-08T18:03:55.334Z,97605.88
2023-10-08T18:06:22.884Z,97601.56
2023-10-08T18:08:51.031Z,97605.03
2023-10-08T18:11:23.772Z,97612.31
2023-10-08T18:13:52.593Z,97607.72
2023-10-08T18:16:19.501Z,97615.84
2023-10-08T18:18:46.795Z,97615.56
2023-10-08T18:21:18.015Z,97627.44
2023-10-08T18:23:47.985Z,97637.16
2023-10-08T18:26:16.298Z,97644.69
2023-10-08T18:28:45.617Z,97647.41
2023-10-08T18:31:17.521Z,97656.59
2023-10-08T18:33:46.584Z,97657.91
2023-10-08T18:36:17.073Z,97672.50
2023-10-08T18:38:43.974Z,97673.03
2023-10-08T18:41:16.422Z,97681.66
2023-10-08T18:43:45.437Z,97693.59
2023-10-08T18:46:12.700Z,97703.53
2023-10-08T18:48:39.511Z,97702.44
2023-10-08T18:51:09.328Z,97730.03
2023-10-08T18:53:36.586Z,97733.81
2023-10-08T18:56:12.348Z,97741.41
2023-10-08T18:58:40.247Z,97735.44
2023-10-08T19:01:08.285Z,97726.47
2023-10-08T19:03:37.898Z,97738.63
2023-10-08T19:06:07.179Z,97726.44
2023-10-08T19:08:37.742Z,97731.25
2023-10-08T19:11:12.643Z,97732.00
2023-10-08T19:13:43.357Z,97739.47
2023-10-08T19:16:14.209Z,97741.28
2023-10-08T19:18:43.036Z,97738.03
2023-10-08T19:21:15.834Z,97735.31
2023-10-08T19:23:42.643Z,97741.28
2023-10-08T19:26:10.370Z,97747.81
2023-10-08T19:28:37.113Z,97747.53
2023-10-08T19:31:12.557Z,97747.28
2023-10-08T19:33:39.995Z,97741.59
2023-10-08T19:36:07.230Z,97739.41
2023-10-08T19:38:35.869Z,97755.88
2023-10-08T19:41:02.507Z,97775.59
2023-10-08T19:43:30.232Z,97798.25
2023-10-08T19:45:58.646Z,97800.34
2023-10-08T19:48:25.734Z,97800.88
2023-10-08T19:50:54.982Z,97789.28
2023-10-08T19:53:21.895Z,97786.59
2023-10-08T19:55:52.450Z,97777.59
2023-10-08T19:58:20.890Z,97794.34
2023-10-08T20:00:53.353Z,97802.97
2023-10-08T20:03:21.451Z,97806.47
2023-10-08T20:05:51.531Z,97801.06
2023-10-08T20:08:18.256Z,97796.41
2023-10-08T20:10:45.701Z,97800.22
2023-10-08T20:13:13.688Z,97803.94
2023-10-08T20:15:40.419Z,97813.09
2023-10-08T20:18:07.525Z,97813.09
2023-10-08T20:20:36.690Z,97818.19
2023-10-08T20:23:03.873Z,97809.22
2023-10-08T20:25:35.019Z,97815.63
2023-10-08T20:28:01.697Z,97820.50
2023-10-08T20:30:29.091Z,97817.75
2023-10-08T20:32:56.007Z,97831.22
2023-10-08T20:35:28.284Z,97839.59
2023-10-08T20:37:58.580Z,97842.78
2023-10-08T20:40:30.393Z,97837.84
2023-10-08T20:42:57.566Z,97833.31
2023-10-08T20:45:28.469Z,97828.09
2023-10-08T20:48:00.008Z,97837.59
2023-10-08T20:50:33.292Z,97835.16
2023-10-08T20:53:02.458Z,97847.56
2023-10-08T20:55:35.136Z,97853.13
2023-10-08T20:58:02.847Z,97869.25
2023-10-08T21:00:35.787Z,97865.13
2023-10-08T21:03:09.396Z,97866.31
2023-10-08T21:05:39.841Z,97872.69
2023-10-08T21:08:07.627Z,97866.06
2023-10-08T21:10:44.509Z,97878.44
2023-10-08T21:13:16.084Z,97874.38
2023-10-08T21:15:44.189Z,97870.28
2023-10-08T21:18:10.964Z,97877.31
2023-10-08T21:20:40.786Z,97879.88
2023-10-08T21:23:07.482Z,97888.91
2023-10-08T21:25:34.516Z,97894.47
2023-10-08T21:28:02.066Z,97874.03
2023-10-08T21:30:29.622Z,97886.66
2023-10-08T21:32:57.511Z,97883.72
2023-10-08T21:35:25.212Z,97895.22
2023-10-08T21:37:53.259Z,97901.75
2023-10-08T21:40:21.918Z,97909.38
2023-10-08T21:42:52.885Z,97907.34
2023-10-08T21:45:20.598Z,97901.66
2023-10-08T21:47:49.290Z,97895.97
2023-10-08T21:50:18.671Z,97907.78
2023-10-08T21:52:48.291Z,97918.94
2023-10-08T21:55:19.742Z,97920.59
2023-10-08T21:57:48.686Z,97909.25
2023-10-08T22:00:24.931Z,97920.75
2023-10-08T22:02:58.003Z,97922.53
2023-10-08T22:05:26.157Z,97926.16
2023-10-08T22:07:52.766Z,97920.81
2023-10-08T22:10:23.218Z,97934.25
2023-10-08T22:12:54.942Z,97934.13
2023-10-08T22:15:29.287Z,97948.22
2023-10-08T22:18:03.131Z,97940.28
2023-10-08T22:20:40.006Z,97950.13
2023-10-08T22:23:09.091Z,97947.81
2023-10-08T22:25:40.022Z,97964.50
2023-10-08T22:28:19.494Z,97972.91
2023-10-08T22:30:51.385Z,97968.34
2023-10-08T22:33:35.091Z,97985.25
2023-10-08T22:36:06.451Z,97980.59
2023-10-08T22:38:33.369Z,97971.22
2023-10-08T22:41:00.411Z,97988.59
2023-10-08T22:43:32.672Z,97986.84
2023-10-08T22:46:03.067Z,97989.38
2023-10-08T22:48:36.927Z,97998.59
2023-10-08T22:51:04.266Z,97996.16
2023-10-08T22:53:31.951Z,97955.63
2023-10-08T22:56:01.814Z,97990.75
2023-10-08T22:58:30.564Z,97993.28
2023-10-08T23:00:58.577Z,98012.66
2023-10-08T23:03:26.520Z,98015.31
2023-10-08T23:05:53.805Z,98027.41
2023-10-08T23:08:22.033Z,98025.66
2023-10-08T23:10:49.060Z,98032.28
2023-10-08T23:13:16.412Z,98050.69
2023-10-08T23:15:44.541Z,98035.34
2023-10-08T23:18:14.258Z,98052.50
2023-10-08T23:20:45.576Z,98045.78
2023-10-08T23:23:12.558Z,98053.25
2023-10-08T23:25:39.696Z,98059.84
2023-10-08T23:28:06.751Z,98065.22
2023-10-08T23:30:34.315Z,98066.09
2023-10-08T23:33:02.126Z,98079.72
2023-10-08T23:35:29.081Z,98073.56
2023-10-08T23:38:07.368Z,98067.16
2023-10-08T23:40:45.757Z,98072.88
2023-10-08T23:43:17.320Z,98068.34
2023-10-08T23:45:56.685Z,98071.03
2023-10-08T23:48:24.078Z,98073.63
2023-10-08T23:50:55.073Z,98076.69
2023-10-08T23:53:29.175Z,98074.00
2023-10-08T23:56:05.371Z,98068.66
2023-10-08T23:58:39.103Z,98071.94
